sensor_id;sensor_type;location;lat;lon;timestamp;temperature;humidity
59067;DHT22;44854;50.838;4.438;2022-11-15T06:20:50;11.50;99.90
59067;DHT22;44854;50.838;4.438;2022-11-15T06:23:16;11.40;99.90
59067;DHT22;44854;50.838;4.438;2022-11-15T06:25:41;11.40;99.90
59067;DHT22;44854;50.838;4.438;2022-11-15T06:28:07;11.40;99.90
59067;DHT22;44854;50.838;4.438;2022-11-15T06:30:32;11.30;99.90
59067;DHT22;44854;50.838;4.438;2022-11-15T06:32:58;11.20;99.90
59067;DHT22;44854;50.838;4.438;2022-11-15T06:35:25;11.20;99.90
59067;DHT22;44854;50.838;4.438;2022-11-15T06:37:50;11.20;99.90
59067;DHT22;44854;50.838;4.438;2022-11-15T06:40:16;11.20;99.90
59067;DHT22;44854;50.838;4.438;2022-11-15T06:42:41;11.20;99.90
59067;DHT22;44854;50.838;4.438;2022-11-15T06:45:07;11.20;99.90
59067;DHT22;44854;50.838;4.438;2022-11-15T06:47:34;11.10;99.90
59067;DHT22;44854;50.838;4.438;2022-11-15T06:49:59;11.10;99.90
59067;DHT22;44854;50.838;4.438;2022-11-15T06:52:25;11.10;99.90
59067;DHT22;44854;50.838;4.438;2022-11-15T06:54:50;11.10;99.90
59067;DHT22;44854;50.838;4.438;2022-11-15T06:57:16;11.10;99.90
59067;DHT22;44854;50.838;4.438;2022-11-15T06:59:41;11.20;99.90
59067;DHT22;44854;50.838;4.438;2022-11-15T07:02:11;11.20;99.90
59067;DHT22;44854;50.838;4.438;2022-11-15T07:04:36;11.10;99.90
59067;DHT22;44854;50.838;4.438;2022-11-15T07:07:02;11.20;99.90
59067;DHT22;44854;50.838;4.438;2022-11-15T07:09:27;11.10;99.90
59067;DHT22;44854;50.838;4.438;2022-11-15T07:11:53;11.00;99.90
59067;DHT22;44854;50.838;4.438;2022-11-15T07:14:18;11.00;99.90
59067;DHT22;44854;50.838;4.438;2022-11-15T07:16:44;10.90;99.90
59067;DHT22;44854;50.838;4.438;2022-11-15T07:19:09;11.00;99.90
59067;DHT22;44854;50.838;4.438;2022-11-15T07:21:35;11.10;99.90
59067;DHT22;44854;50.838;4.438;2022-11-15T07:24:01;11.10;99.90
59067;DHT22;44854;50.838;4.438;2022-11-15T07:26:27;11.00;99.90
59067;DHT22;44854;50.838;4.438;2022-11-15T07:28:52;11.10;99.90
59067;DHT22;44854;50.838;4.438;2022-11-15T07:31:18;11.10;99.90
59067;DHT22;44854;50.838;4.438;2022-11-15T07:33:43;11.00;99.90
59067;DHT22;44854;50.838;4.438;2022-11-15T07:36:09;10.90;99.90
59067;DHT22;44854;50.838;4.438;2022-11-15T07:38:35;10.90;99.90
59067;DHT22;44854;50.838;4.438;2022-11-15T07:41:02;10.90;99.90
59067;DHT22;44854;50.838;4.438;2022-11-15T07:43:28;11.00;99.90
59067;DHT22;44854;50.838;4.438;2022-11-15T07:45:55;11.00;99.90
59067;DHT22;44854;50.838;4.438;2022-11-15T07:48:20;10.90;99.90
59067;DHT22;44854;50.838;4.438;2022-11-15T07:50:46;11.00;99.90
59067;DHT22;44854;50.838;4.438;2022-11-15T07:53:11;10.90;99.90
59067;DHT22;44854;50.838;4.438;2022-11-15T07:55:39;11.00;99.90
59067;DHT22;44854;50.838;4.438;2022-11-15T07:58:05;11.00;99.90
59067;DHT22;44854;50.838;4.438;2022-11-15T08:00:31;11.00;99.90
59067;DHT22;44854;50.838;4.438;2022-11-15T08:05:28;11.00;99.90
59067;DHT22;44854;50.838;4.438;2022-11-15T08:07:55;11.00;99.90
59067;DHT22;44854;50.838;4.438;2022-11-15T08:10:20;11.00;99.90
59067;DHT22;44854;50.838;4.438;2022-11-15T08:12:46;11.00;99.90
59067;DHT22;44854;50.838;4.438;2022-11-15T08:15:15;10.90;99.90
59067;DHT22;44854;50.838;4.438;2022-11-15T08:17:41;11.10;99.90
59067;DHT22;44854;50.838;4.438;2022-11-15T08:20:06;11.20;99.90
59067;DHT22;44854;50.838;4.438;2022-11-15T08:22:33;11.30;99.90
59067;DHT22;44854;50.838;4.438;2022-11-15T08:24:58;11.30;99.90
59067;DHT22;44854;50.838;4.438;2022-11-15T08:27:24;11.20;99.90
59067;DHT22;44854;50.838;4.438;2022-11-15T08:29:49;11.10;99.90
59067;DHT22;44854;50.838;4.438;2022-11-15T08:32:15;11.20;99.90
59067;DHT22;44854;50.838;4.438;2022-11-15T08:34:41;11.30;99.90
59067;DHT22;44854;50.838;4.438;2022-11-15T08:37:07;11.20;99.90
59067;DHT22;44854;50.838;4.438;2022-11-15T08:39:32;11.40;99.90
59067;DHT22;44854;50.838;4.438;2022-11-15T08:41:58;11.40;99.90
59067;DHT22;44854;50.838;4.438;2022-11-15T08:44:24;11.40;99.90
59067;DHT22;44854;50.838;4.438;2022-11-15T08:46:49;11.40;99.90
59067;DHT22;44854;50.838;4.438;2022-11-15T08:49:15;11.40;99.90
59067;DHT22;44854;50.838;4.438;2022-11-15T08:51:41;11.30;99.90
59067;DHT22;44854;50.838;4.438;2022-11-15T08:54:06;11.30;99.90
59067;DHT22;44854;50.838;4.438;2022-11-15T08:56:32;11.40;99.90
59067;DHT22;44854;50.838;4.438;2022-11-15T08:58:58;11.40;99.90
59067;DHT22;44854;50.838;4.438;2022-11-15T09:01:23;11.50;99.90
59067;DHT22;44854;50.838;4.438;2022-11-15T09:03:50;11.50;99.90
59067;DHT22;44854;50.838;4.438;2022-11-15T09:06:16;11.40;99.90
59067;DHT22;44854;50.838;4.438;2022-11-15T09:08:41;11.40;99.90
59067;DHT22;44854;50.838;4.438;2022-11-15T09:11:09;11.70;99.90
59067;DHT22;44854;50.838;4.438;2022-11-15T09:13:35;11.70;99.90
59067;DHT22;44854;50.838;4.438;2022-11-15T09:16:05;11.70;99.90
59067;DHT22;44854;50.838;4.438;2022-11-15T09:18:31;11.60;99.90
59067;DHT22;44854;50.838;4.438;2022-11-15T09:20:57;11.80;99.90
59067;DHT22;44854;50.838;4.438;2022-11-15T09:23:23;12.00;99.90
59067;DHT22;44854;50.838;4.438;2022-11-15T09:25:49;12.10;99.90
59067;DHT22;44854;50.838;4.438;2022-11-15T09:28:14;11.70;99.90
59067;DHT22;44854;50.838;4.438;2022-11-15T09:30:40;11.70;99.90
59067;DHT22;44854;50.838;4.438;2022-11-15T09:33:09;11.70;99.90
59067;DHT22;44854;50.838;4.438;2022-11-15T09:35:35;11.70;99.90
59067;DHT22;44854;50.838;4.438;2022-11-15T09:38:00;12.00;99.90
59067;DHT22;44854;50.838;4.438;2022-11-15T09:40:26;12.00;99.90
59067;DHT22;44854;50.838;4.438;2022-11-15T09:42:56;12.00;99.90
59067;DHT22;44854;50.838;4.438;2022-11-15T09:45:38;12.10;99.90
59067;DHT22;44854;50.838;4.438;2022-11-15T09:48:14;12.00;99.90
59067;DHT22;44854;50.838;4.438;2022-11-15T09:50:49;11.90;99.90
59067;DHT22;44854;50.838;4.438;2022-11-15T09:56:18;12.20;99.90
59067;DHT22;44854;50.838;4.438;2022-11-15T10:01:18;12.50;99.90
59067;DHT22;44854;50.838;4.438;2022-11-15T10:03:45;12.50;99.90
59067;DHT22;44854;50.838;4.438;2022-11-15T10:06:16;12.50;99.90
59067;DHT22;44854;50.838;4.438;2022-11-15T10:11:17;12.50;99.90
59067;DHT22;44854;50.838;4.438;2022-11-15T10:13:43;12.60;99.90
59067;DHT22;44854;50.838;4.438;2022-11-15T10:21:13;12.60;99.90
59067;DHT22;44854;50.838;4.438;2022-11-15T10:23:40;12.60;99.90
59067;DHT22;44854;50.838;4.438;2022-11-15T10:26:08;12.60;99.90
59067;DHT22;44854;50.838;4.438;2022-11-15T10:28:34;12.70;99.90
59067;DHT22;44854;50.838;4.438;2022-11-15T10:31:00;12.90;99.90
59067;DHT22;44854;50.838;4.438;2022-11-15T10:41:22;13.00;99.90
59067;DHT22;44854;50.838;4.438;2022-11-15T10:46:36;12.90;99.90
59067;DHT22;44854;50.838;4.438;2022-11-15T10:49:15;13.00;99.90
59067;DHT22;44854;50.838;4.438;2022-11-15T10:51:45;13.00;99.90
59067;DHT22;44854;50.838;4.438;2022-11-15T10:54:11;13.00;99.90
59067;DHT22;44854;50.838;4.438;2022-11-15T10:56:38;12.90;99.90
59067;DHT22;44854;50.838;4.438;2022-11-15T10:59:04;13.00;99.90
59067;DHT22;44854;50.838;4.438;2022-11-15T11:01:30;13.00;99.90
59067;DHT22;44854;50.838;4.438;2022-11-15T11:04:00;13.10;99.90
59067;DHT22;44854;50.838;4.438;2022-11-15T11:06:25;13.10;99.90
59067;DHT22;44854;50.838;4.438;2022-11-15T11:09:01;13.10;99.90
59067;DHT22;44854;50.838;4.438;2022-11-15T11:11:44;13.30;99.90
59067;DHT22;44854;50.838;4.438;2022-11-15T11:14:13;13.20;99.90
59067;DHT22;44854;50.838;4.438;2022-11-15T11:16:44;13.20;99.90
59067;DHT22;44854;50.838;4.438;2022-11-15T11:26:57;13.50;99.90
59067;DHT22;44854;50.838;4.438;2022-11-15T11:34:51;13.80;99.90
59067;DHT22;44854;50.838;4.438;2022-11-15T11:45:19;14.10;99.90
59067;DHT22;44854;50.838;4.438;2022-11-15T11:47:47;14.10;99.90
59067;DHT22;44854;50.838;4.438;2022-11-15T11:50:20;14.10;99.90
59067;DHT22;44854;50.838;4.438;2022-11-15T11:52:54;14.00;99.90
59067;DHT22;44854;50.838;4.438;2022-11-15T11:55:23;14.30;99.90
59067;DHT22;44854;50.838;4.438;2022-11-15T11:57:58;14.20;99.90
59067;DHT22;44854;50.838;4.438;2022-11-15T12:00:25;14.20;99.90
59067;DHT22;44854;50.838;4.438;2022-11-15T12:03:18;14.10;99.90
59067;DHT22;44854;50.838;4.438;2022-11-15T12:05:40;13.90;99.90
59067;DHT22;44854;50.838;4.438;2022-11-15T12:08:24;13.90;99.90
59067;DHT22;44854;50.838;4.438;2022-11-15T12:11:04;14.10;99.90
59067;DHT22;44854;50.838;4.438;2022-11-15T12:13:32;14.30;99.90
59067;DHT22;44854;50.838;4.438;2022-11-15T12:16:12;14.10;99.90
59067;DHT22;44854;50.838;4.438;2022-11-15T12:18:40;14.10;99.90
59067;DHT22;44854;50.838;4.438;2022-11-15T12:21:21;14.10;99.90
59067;DHT22;44854;50.838;4.438;2022-11-15T12:23:49;14.10;99.90
59067;DHT22;44854;50.838;4.438;2022-11-15T12:26:17;14.00;99.90
59067;DHT22;44854;50.838;4.438;2022-11-15T12:31:12;13.90;99.90
59067;DHT22;44854;50.838;4.438;2022-11-15T12:33:43;14.00;99.90
59067;DHT22;44854;50.838;4.438;2022-11-15T12:36:10;14.00;99.90
59067;DHT22;44854;50.838;4.438;2022-11-15T12:41:21;14.10;99.90
59067;DHT22;44854;50.838;4.438;2022-11-15T12:43:47;14.10;99.90
59067;DHT22;44854;50.838;4.438;2022-11-15T12:48:49;14.10;99.90
59067;DHT22;44854;50.838;4.438;2022-11-15T12:51:16;14.10;99.90
59067;DHT22;44854;50.838;4.438;2022-11-15T12:53:41;14.10;99.90
59067;DHT22;44854;50.838;4.438;2022-11-15T13:01:07;14.30;99.90
59067;DHT22;44854;50.838;4.438;2022-11-15T13:03:33;14.40;99.90
59067;DHT22;44854;50.838;4.438;2022-11-15T13:06:00;14.30;99.90
59067;DHT22;44854;50.838;4.438;2022-11-15T13:08:38;14.20;99.90
59067;DHT22;44854;50.838;4.438;2022-11-15T13:13:50;14.30;99.90
59067;DHT22;44854;50.838;4.438;2022-11-15T13:16:20;14.40;99.90
59067;DHT22;44854;50.838;4.438;2022-11-15T13:18:52;14.40;99.90
59067;DHT22;44854;50.838;4.438;2022-11-15T13:21:20;14.50;99.90
59067;DHT22;44854;50.838;4.438;2022-11-15T13:24:04;14.70;99.90
59067;DHT22;44854;50.838;4.438;2022-11-15T13:26:30;14.50;99.90
59067;DHT22;44854;50.838;4.438;2022-11-15T13:28:56;14.60;99.90
59067;DHT22;44854;50.838;4.438;2022-11-15T13:33:50;14.40;99.90
59067;DHT22;44854;50.838;4.438;2022-11-15T13:36:26;14.40;99.90
59067;DHT22;44854;50.838;4.438;2022-11-15T13:41:22;14.40;99.90
59067;DHT22;44854;50.838;4.438;2022-11-15T13:43:49;14.40;99.90
59067;DHT22;44854;50.838;4.438;2022-11-15T13:48:41;14.40;99.90
59067;DHT22;44854;50.838;4.438;2022-11-15T13:51:14;14.50;99.90
59067;DHT22;44854;50.838;4.438;2022-11-15T13:53:43;14.50;99.90
59067;DHT22;44854;50.838;4.438;2022-11-15T13:56:12;14.50;99.90
59067;DHT22;44854;50.838;4.438;2022-11-15T13:58:38;14.50;99.90
59067;DHT22;44854;50.838;4.438;2022-11-15T14:01:04;14.40;99.90
59067;DHT22;44854;50.838;4.438;2022-11-15T14:03:34;14.40;99.90
59067;DHT22;44854;50.838;4.438;2022-11-15T14:06:12;14.50;99.90
59067;DHT22;44854;50.838;4.438;2022-11-15T14:08:41;14.60;99.90
59067;DHT22;44854;50.838;4.438;2022-11-15T14:11:08;14.80;99.90
59067;DHT22;44854;50.838;4.438;2022-11-15T14:13:34;14.70;99.90
59067;DHT22;44854;50.838;4.438;2022-11-15T14:18:42;14.70;99.90
59067;DHT22;44854;50.838;4.438;2022-11-15T14:21:08;14.70;99.90
59067;DHT22;44854;50.838;4.438;2022-11-15T14:23:34;14.70;99.90
59067;DHT22;44854;50.838;4.438;2022-11-15T14:26:00;14.60;99.90
59067;DHT22;44854;50.838;4.438;2022-11-15T14:30:52;14.50;99.90
59067;DHT22;44854;50.838;4.438;2022-11-15T14:33:39;14.50;99.90
59067;DHT22;44854;50.838;4.438;2022-11-15T14:36:05;14.50;99.90
59067;DHT22;44854;50.838;4.438;2022-11-15T14:38:31;14.60;99.90
59067;DHT22;44854;50.838;4.438;2022-11-15T14:40:56;14.60;99.90
59067;DHT22;44854;50.838;4.438;2022-11-15T14:43:25;14.50;99.90
59067;DHT22;44854;50.838;4.438;2022-11-15T14:45:50;14.50;99.90
59067;DHT22;44854;50.838;4.438;2022-11-15T14:48:16;14.30;99.90
59067;DHT22;44854;50.838;4.438;2022-11-15T14:50:42;14.30;99.90
59067;DHT22;44854;50.838;4.438;2022-11-15T14:53:12;14.40;99.90
59067;DHT22;44854;50.838;4.438;2022-11-15T14:55:37;14.20;99.90
59067;DHT22;44854;50.838;4.438;2022-11-15T14:58:03;14.20;99.90
59067;DHT22;44854;50.838;4.438;2022-11-15T15:00:30;14.30;99.90
59067;DHT22;44854;50.838;4.438;2022-11-15T15:02:55;14.20;99.90
59067;DHT22;44854;50.838;4.438;2022-11-15T15:07:47;14.20;99.90
59067;DHT22;44854;50.838;4.438;2022-11-15T15:10:13;14.20;99.90
59067;DHT22;44854;50.838;4.438;2022-11-15T15:12:38;14.20;99.90
59067;DHT22;44854;50.838;4.438;2022-11-15T15:15:04;14.00;99.90
59067;DHT22;44854;50.838;4.438;2022-11-15T15:17:30;13.90;99.90
59067;DHT22;44854;50.838;4.438;2022-11-15T15:19:55;14.00;99.90
59067;DHT22;44854;50.838;4.438;2022-11-15T15:22:21;13.90;99.90
59067;DHT22;44854;50.838;4.438;2022-11-15T15:24:47;13.90;99.90
59067;DHT22;44854;50.838;4.438;2022-11-15T15:27:13;13.80;99.90
59067;DHT22;44854;50.838;4.438;2022-11-15T15:29:39;13.80;99.90
59067;DHT22;44854;50.838;4.438;2022-11-15T15:32:04;13.70;99.90
59067;DHT22;44854;50.838;4.438;2022-11-15T15:34:30;13.70;99.90
59067;DHT22;44854;50.838;4.438;2022-11-15T15:39:34;13.70;99.90
59067;DHT22;44854;50.838;4.438;2022-11-15T15:41:59;13.80;99.90
59067;DHT22;44854;50.838;4.438;2022-11-15T15:44:25;13.80;99.90
59067;DHT22;44854;50.838;4.438;2022-11-15T15:46:50;13.70;99.90
59067;DHT22;44854;50.838;4.438;2022-11-15T15:49:16;13.70;99.90
59067;DHT22;44854;50.838;4.438;2022-11-15T15:51:41;13.70;99.90
59067;DHT22;44854;50.838;4.438;2022-11-15T15:54:07;13.70;99.90
59067;DHT22;44854;50.838;4.438;2022-11-15T15:56:32;13.60;99.90
59067;DHT22;44854;50.838;4.438;2022-11-15T15:58:58;13.50;99.90
59067;DHT22;44854;50.838;4.438;2022-11-15T16:01:23;13.50;99.90
59067;DHT22;44854;50.838;4.438;2022-11-15T16:03:50;13.50;99.90
59067;DHT22;44854;50.838;4.438;2022-11-15T16:06:33;13.60;99.90
59067;DHT22;44854;50.838;4.438;2022-11-15T16:08:59;13.60;99.90
59067;DHT22;44854;50.838;4.438;2022-11-15T16:11:27;13.60;99.90
59067;DHT22;44854;50.838;4.438;2022-11-15T16:13:53;13.60;99.90
59067;DHT22;44854;50.838;4.438;2022-11-15T16:16:18;13.60;99.90
59067;DHT22;44854;50.838;4.438;2022-11-15T16:18:45;13.50;99.90
59067;DHT22;44854;50.838;4.438;2022-11-15T16:21:11;13.50;99.90
59067;DHT22;44854;50.838;4.438;2022-11-15T16:23:37;13.50;99.90
59067;DHT22;44854;50.838;4.438;2022-11-15T16:26:04;13.60;99.90
59067;DHT22;44854;50.838;4.438;2022-11-15T16:28:35;13.50;99.90
59067;DHT22;44854;50.838;4.438;2022-11-15T16:33:29;13.50;99.90
59067;DHT22;44854;50.838;4.438;2022-11-15T16:35:54;13.60;99.90
59067;DHT22;44854;50.838;4.438;2022-11-15T16:38:19;13.50;99.90
59067;DHT22;44854;50.838;4.438;2022-11-15T16:40:45;13.60;99.90
59067;DHT22;44854;50.838;4.438;2022-11-15T16:43:14;13.40;99.90
59067;DHT22;44854;50.838;4.438;2022-11-15T16:45:40;13.40;99.90
59067;DHT22;44854;50.838;4.438;2022-11-15T16:48:06;13.30;99.90
59067;DHT22;44854;50.838;4.438;2022-11-15T16:50:33;13.40;99.90
59067;DHT22;44854;50.838;4.438;2022-11-15T16:53:04;13.30;99.90
59067;DHT22;44854;50.838;4.438;2022-11-15T16:55:29;13.30;99.90
59067;DHT22;44854;50.838;4.438;2022-11-15T16:57:55;13.40;99.90
59067;DHT22;44854;50.838;4.438;2022-11-15T17:00:22;13.30;99.90
59067;DHT22;44854;50.838;4.438;2022-11-15T17:02:49;13.40;99.90
59067;DHT22;44854;50.838;4.438;2022-11-15T17:05:16;13.60;99.90
59067;DHT22;44854;50.838;4.438;2022-11-15T17:07:42;13.50;99.90
59067;DHT22;44854;50.838;4.438;2022-11-15T17:10:08;13.60;99.90
59067;DHT22;44854;50.838;4.438;2022-11-15T17:12:35;13.60;99.90
59067;DHT22;44854;50.838;4.438;2022-11-15T17:15:00;13.40;99.90
59067;DHT22;44854;50.838;4.438;2022-11-15T17:17:29;13.30;99.90
59067;DHT22;44854;50.838;4.438;2022-11-15T17:19:54;13.40;99.90
59067;DHT22;44854;50.838;4.438;2022-11-15T17:22:20;13.40;99.90
59067;DHT22;44854;50.838;4.438;2022-11-15T17:24:45;13.60;99.90
59067;DHT22;44854;50.838;4.438;2022-11-15T17:27:11;13.60;99.90
59067;DHT22;44854;50.838;4.438;2022-11-15T17:29:36;13.50;99.90
59067;DHT22;44854;50.838;4.438;2022-11-15T17:32:02;13.50;99.90
59067;DHT22;44854;50.838;4.438;2022-11-15T17:34:28;13.50;99.90
59067;DHT22;44854;50.838;4.438;2022-11-15T17:36:54;13.50;99.90
59067;DHT22;44854;50.838;4.438;2022-11-15T17:39:19;13.50;99.90
59067;DHT22;44854;50.838;4.438;2022-11-15T17:41:47;13.50;99.90
59067;DHT22;44854;50.838;4.438;2022-11-15T17:44:13;13.40;99.90
59067;DHT22;44854;50.838;4.438;2022-11-15T17:46:39;13.30;99.90
59067;DHT22;44854;50.838;4.438;2022-11-15T17:49:05;13.30;99.90
59067;DHT22;44854;50.838;4.438;2022-11-15T17:51:30;13.40;99.90
59067;DHT22;44854;50.838;4.438;2022-11-15T17:53:56;13.40;99.90
59067;DHT22;44854;50.838;4.438;2022-11-15T17:56:22;13.50;99.90
59067;DHT22;44854;50.838;4.438;2022-11-15T17:58:48;13.50;99.90
59067;DHT22;44854;50.838;4.438;2022-11-15T18:01:18;13.50;99.90
59067;DHT22;44854;50.838;4.438;2022-11-15T18:03:44;13.50;99.90
59067;DHT22;44854;50.838;4.438;2022-11-15T18:06:10;13.50;99.90
59067;DHT22;44854;50.838;4.438;2022-11-15T18:08:36;13.40;99.90
59067;DHT22;44854;50.838;4.438;2022-11-15T18:11:06;13.50;99.90
59067;DHT22;44854;50.838;4.438;2022-11-15T18:13:34;13.30;99.90
59067;DHT22;44854;50.838;4.438;2022-11-15T18:16:03;13.30;99.90
59067;DHT22;44854;50.838;4.438;2022-11-15T18:18:29;13.30;99.90
59067;DHT22;44854;50.838;4.438;2022-11-15T18:21:05;13.40;99.90
59067;DHT22;44854;50.838;4.438;2022-11-15T18:23:31;13.40;99.90
59067;DHT22;44854;50.838;4.438;2022-11-15T18:25:57;13.50;99.90
59067;DHT22;44854;50.838;4.438;2022-11-15T18:28:27;13.50;99.90
59067;DHT22;44854;50.838;4.438;2022-11-15T18:30:53;13.50;99.90
59067;DHT22;44854;50.838;4.438;2022-11-15T18:33:18;13.60;99.90
59067;DHT22;44854;50.838;4.438;2022-11-15T18:35:44;13.50;99.90
59067;DHT22;44854;50.838;4.438;2022-11-15T18:38:10;13.40;99.90
59067;DHT22;44854;50.838;4.438;2022-11-15T18:40:36;13.50;99.90
59067;DHT22;44854;50.838;4.438;2022-11-15T18:43:01;13.40;99.90
59067;DHT22;44854;50.838;4.438;2022-11-15T18:45:27;13.40;99.90
59067;DHT22;44854;50.838;4.438;2022-11-15T18:47:52;13.40;99.90
59067;DHT22;44854;50.838;4.438;2022-11-15T18:50:18;13.40;99.90
59067;DHT22;44854;50.838;4.438;2022-11-15T18:52:45;13.40;99.90
59067;DHT22;44854;50.838;4.438;2022-11-15T18:55:10;13.30;99.90
59067;DHT22;44854;50.838;4.438;2022-11-15T18:57:37;13.40;99.90
59067;DHT22;44854;50.838;4.438;2022-11-15T19:00:03;13.40;99.90
59067;DHT22;44854;50.838;4.438;2022-11-15T19:02:28;13.40;99.90
59067;DHT22;44854;50.838;4.438;2022-11-15T19:04:54;13.40;99.90
59067;DHT22;44854;50.838;4.438;2022-11-15T19:07:19;13.40;99.90
59067;DHT22;44854;50.838;4.438;2022-11-15T19:09:45;13.30;99.90
59067;DHT22;44854;50.838;4.438;2022-11-15T19:12:11;13.40;99.90
59067;DHT22;44854;50.838;4.438;2022-11-15T19:14:36;13.40;99.90
59067;DHT22;44854;50.838;4.438;2022-11-15T19:17:02;13.30;99.90
59067;DHT22;44854;50.838;4.438;2022-11-15T19:19:27;13.30;99.90
59067;DHT22;44854;50.838;4.438;2022-11-15T19:21:53;13.30;99.90
59067;DHT22;44854;50.838;4.438;2022-11-15T19:24:19;13.30;99.90
59067;DHT22;44854;50.838;4.438;2022-11-15T19:26:45;13.40;99.90
59067;DHT22;44854;50.838;4.438;2022-11-15T19:29:11;13.50;99.90
59067;DHT22;44854;50.838;4.438;2022-11-15T19:31:38;13.60;99.90
59067;DHT22;44854;50.838;4.438;2022-11-15T19:34:04;13.60;99.90
59067;DHT22;44854;50.838;4.438;2022-11-15T19:36:31;13.60;99.90
59067;DHT22;44854;50.838;4.438;2022-11-15T19:38:57;13.60;99.90
59067;DHT22;44854;50.838;4.438;2022-11-15T19:41:23;13.60;99.90
59067;DHT22;44854;50.838;4.438;2022-11-15T19:43:49;13.50;99.90
59067;DHT22;44854;50.838;4.438;2022-11-15T19:46:15;13.60;99.90
59067;DHT22;44854;50.838;4.438;2022-11-15T19:48:41;13.60;99.90
59067;DHT22;44854;50.838;4.438;2022-11-15T19:51:14;13.50;99.90
59067;DHT22;44854;50.838;4.438;2022-11-15T19:53:40;13.50;99.90
59067;DHT22;44854;50.838;4.438;2022-11-15T19:56:07;13.40;99.90
59067;DHT22;44854;50.838;4.438;2022-11-15T19:58:33;13.50;99.90
59067;DHT22;44854;50.838;4.438;2022-11-15T20:00:59;13.60;99.90
59067;DHT22;44854;50.838;4.438;2022-11-15T20:03:26;13.50;99.90
59067;DHT22;44854;50.838;4.438;2022-11-15T20:05:51;13.40;99.90
59067;DHT22;44854;50.838;4.438;2022-11-15T20:08:17;13.30;99.90
59067;DHT22;44854;50.838;4.438;2022-11-15T20:10:42;13.40;99.90
59067;DHT22;44854;50.838;4.438;2022-11-15T20:13:10;13.50;99.90
59067;DHT22;44854;50.838;4.438;2022-11-15T20:15:35;13.50;99.90
59067;DHT22;44854;50.838;4.438;2022-11-15T20:18:01;13.60;99.90
59067;DHT22;44854;50.838;4.438;2022-11-15T20:20:29;13.60;99.90
59067;DHT22;44854;50.838;4.438;2022-11-15T20:22:55;13.60;99.90
59067;DHT22;44854;50.838;4.438;2022-11-15T20:25:21;13.60;99.90
59067;DHT22;44854;50.838;4.438;2022-11-15T20:27:46;13.60;99.90
59067;DHT22;44854;50.838;4.438;2022-11-15T20:30:12;13.70;99.90
59067;DHT22;44854;50.838;4.438;2022-11-15T20:32:38;13.70;99.90
59067;DHT22;44854;50.838;4.438;2022-11-15T20:35:03;13.70;99.90
59067;DHT22;44854;50.838;4.438;2022-11-15T20:37:29;13.70;99.90
59067;DHT22;44854;50.838;4.438;2022-11-15T20:39:55;13.60;99.90
59067;DHT22;44854;50.838;4.438;2022-11-15T20:42:21;13.60;99.90
59067;DHT22;44854;50.838;4.438;2022-11-15T20:44:46;13.70;99.90
59067;DHT22;44854;50.838;4.438;2022-11-15T20:47:12;13.70;99.90
59067;DHT22;44854;50.838;4.438;2022-11-15T20:49:38;13.60;99.90
59067;DHT22;44854;50.838;4.438;2022-11-15T20:52:03;13.70;99.90
59067;DHT22;44854;50.838;4.438;2022-11-15T20:54:28;13.60;99.90
59067;DHT22;44854;50.838;4.438;2022-11-15T20:56:54;13.60;99.90
59067;DHT22;44854;50.838;4.438;2022-11-15T20:59:20;13.60;99.90
59067;DHT22;44854;50.838;4.438;2022-11-15T21:01:45;13.60;99.90
59067;DHT22;44854;50.838;4.438;2022-11-15T21:04:12;13.50;99.90
59067;DHT22;44854;50.838;4.438;2022-11-15T21:06:37;13.60;99.90
59067;DHT22;44854;50.838;4.438;2022-11-15T21:09:03;13.60;99.90
59067;DHT22;44854;50.838;4.438;2022-11-15T21:11:47;13.50;99.90
59067;DHT22;44854;50.838;4.438;2022-11-15T21:14:32;13.60;99.90
59067;DHT22;44854;50.838;4.438;2022-11-15T21:16:57;13.60;99.90
59067;DHT22;44854;50.838;4.438;2022-11-15T21:19:23;13.60;99.90
59067;DHT22;44854;50.838;4.438;2022-11-15T21:21:50;13.60;99.90
59067;DHT22;44854;50.838;4.438;2022-11-15T21:24:15;13.50;99.90
59067;DHT22;44854;50.838;4.438;2022-11-15T21:26:41;13.50;99.90
59067;DHT22;44854;50.838;4.438;2022-11-15T21:29:07;13.50;99.90
59067;DHT22;44854;50.838;4.438;2022-11-15T21:31:44;13.60;99.90
59067;DHT22;44854;50.838;4.438;2022-11-15T21:34:10;13.60;99.90
59067;DHT22;44854;50.838;4.438;2022-11-15T21:36:35;13.50;99.90
59067;DHT22;44854;50.838;4.438;2022-11-15T21:39:01;13.60;99.90
59067;DHT22;44854;50.838;4.438;2022-11-15T21:41:27;13.70;99.90
59067;DHT22;44854;50.838;4.438;2022-11-15T21:43:56;13.70;99.90
59067;DHT22;44854;50.838;4.438;2022-11-15T21:46:23;13.70;99.90
59067;DHT22;44854;50.838;4.438;2022-11-15T21:48:48;13.60;99.90
59067;DHT22;44854;50.838;4.438;2022-11-15T21:51:14;13.60;99.90
59067;DHT22;44854;50.838;4.438;2022-11-15T21:53:39;13.70;99.90
59067;DHT22;44854;50.838;4.438;2022-11-15T21:56:05;13.70;99.90
59067;DHT22;44854;50.838;4.438;2022-11-15T21:58:31;13.70;99.90
59067;DHT22;44854;50.838;4.438;2022-11-15T22:00:57;13.60;99.90
59067;DHT22;44854;50.838;4.438;2022-11-15T22:03:41;13.70;99.90
59067;DHT22;44854;50.838;4.438;2022-11-15T22:06:07;13.70;99.90
59067;DHT22;44854;50.838;4.438;2022-11-15T22:08:33;13.50;99.90
59067;DHT22;44854;50.838;4.438;2022-11-15T22:10:58;13.60;99.90
59067;DHT22;44854;50.838;4.438;2022-11-15T22:13:24;13.60;99.90
59067;DHT22;44854;50.838;4.438;2022-11-15T22:15:50;13.70;99.90
59067;DHT22;44854;50.838;4.438;2022-11-15T22:18:16;13.60;99.90
59067;DHT22;44854;50.838;4.438;2022-11-15T22:20:55;13.60;99.90
59067;DHT22;44854;50.838;4.438;2022-11-15T22:23:22;13.70;99.90
59067;DHT22;44854;50.838;4.438;2022-11-15T22:25:48;13.70;99.90
59067;DHT22;44854;50.838;4.438;2022-11-15T22:28:13;13.60;99.90
59067;DHT22;44854;50.838;4.438;2022-11-15T22:30:39;13.60;99.90
59067;DHT22;44854;50.838;4.438;2022-11-15T22:33:05;13.60;99.90
59067;DHT22;44854;50.838;4.438;2022-11-15T22:35:33;13.60;99.90
59067;DHT22;44854;50.838;4.438;2022-11-15T22:37:58;13.60;99.90
59067;DHT22;44854;50.838;4.438;2022-11-15T22:40:24;13.60;99.90
59067;DHT22;44854;50.838;4.438;2022-11-15T22:42:49;13.80;99.90
59067;DHT22;44854;50.838;4.438;2022-11-15T22:45:15;13.80;99.90
59067;DHT22;44854;50.838;4.438;2022-11-15T22:47:40;13.80;99.90
59067;DHT22;44854;50.838;4.438;2022-11-15T22:50:06;13.80;99.90
59067;DHT22;44854;50.838;4.438;2022-11-15T22:52:32;13.70;99.90
59067;DHT22;44854;50.838;4.438;2022-11-15T22:54:57;13.80;99.90
59067;DHT22;44854;50.838;4.438;2022-11-15T22:57:23;13.80;99.90
59067;DHT22;44854;50.838;4.438;2022-11-15T22:59:48;13.80;99.90
59067;DHT22;44854;50.838;4.438;2022-11-15T23:02:17;13.70;99.90
59067;DHT22;44854;50.838;4.438;2022-11-15T23:04:42;13.70;99.90
59067;DHT22;44854;50.838;4.438;2022-11-15T23:07:09;13.70;99.90
59067;DHT22;44854;50.838;4.438;2022-11-15T23:09:37;13.70;99.90
59067;DHT22;44854;50.838;4.438;2022-11-15T23:12:02;13.60;99.90